Georgia State University, Georgia
Current Conditions -  °F | °C
As of 12:52 PM on Monday 22 Dec 2014 (Local Time) from KATL Reporting Station
Drizzle Drizzle  
Wind Chill: 41°   Ceiling: 300
Heat Index: 46°   Visibility: 0.5mi
Dew Point: 44°   Wind: 12mph
Humidity: 93%   Direction: 100°E
Pressure: 29.95"   Gusts: NA
Location:  33.7534°N, 84.3891°W
Report Text: KATL 221752Z 10010KT 1/2SM R09R/4000V4500FT -DZ FG OVC003 08/07 A2995 RMK AO2 PRESFR SLP143 P0000 60000 T00780067 10078 20072 58024
Loading
Personal Weather Stations






























Interactive Weather Map New forecast layout! Learn more

10-Day Weather Forecast

Advertisements
Track Severe Weather on mobile